sensor_id;sensor_type;location;lat;lon;timestamp;pressure;altitude;pressure_sealevel;temperature;humidity
36828;BME280;22766;48.042;11.192;2022-08-05T00:02:20;94895.22;;;18.57;100.00
36828;BME280;22766;48.042;11.192;2022-08-05T00:04:47;94889.19;;;18.57;100.00
36828;BME280;22766;48.042;11.192;2022-08-05T00:07:21;94889.75;;;18.65;100.00
36828;BME280;22766;48.042;11.192;2022-08-05T00:10:07;94889.38;;;18.62;100.00
36828;BME280;22766;48.042;11.192;2022-08-05T00:12:34;94884.56;;;18.59;100.00
36828;BME280;22766;48.042;11.192;2022-08-05T00:15:21;94882.31;;;18.56;100.00
36828;BME280;22766;48.042;11.192;2022-08-05T00:18:08;94883.16;;;18.50;100.00
36828;BME280;22766;48.042;11.192;2022-08-05T00:20:47;94879.31;;;18.52;100.00
36828;BME280;22766;48.042;11.192;2022-08-05T00:23:14;94876.53;;;18.47;100.00
36828;BME280;22766;48.042;11.192;2022-08-05T00:25:41;94882.97;;;18.51;100.00
36828;BME280;22766;48.042;11.192;2022-08-05T00:28:12;94883.56;;;18.53;100.00
36828;BME280;22766;48.042;11.192;2022-08-05T00:30:39;94879.53;;;18.57;100.00
36828;BME280;22766;48.042;11.192;2022-08-05T00:33:10;94884.34;;;18.60;100.00
36828;BME280;22766;48.042;11.192;2022-08-05T00:35:56;94887.78;;;18.61;100.00
36828;BME280;22766;48.042;11.192;2022-08-05T00:38:41;94892.78;;;18.62;100.00
36828;BME280;22766;48.042;11.192;2022-08-05T00:41:09;94883.34;;;18.29;100.00
36828;BME280;22766;48.042;11.192;2022-08-05T00:43:37;94877.31;;;18.09;100.00
36828;BME280;22766;48.042;11.192;2022-08-05T00:46:15;94882.13;;;17.92;100.00
36828;BME280;22766;48.042;11.192;2022-08-05T00:48:42;94884.72;;;17.86;100.00
36828;BME280;22766;48.042;11.192;2022-08-05T00:51:18;94877.91;;;17.91;100.00
36828;BME280;22766;48.042;11.192;2022-08-05T00:54:05;94881.94;;;17.87;100.00
36828;BME280;22766;48.042;11.192;2022-08-05T00:56:31;94878.91;;;17.84;100.00
36828;BME280;22766;48.042;11.192;2022-08-05T00:58:58;94877.31;;;17.89;100.00
36828;BME280;22766;48.042;11.192;2022-08-05T01:01:25;94869.06;;;17.92;100.00
36828;BME280;22766;48.042;11.192;2022-08-05T01:04:08;94876.69;;;17.94;100.00
36828;BME280;22766;48.042;11.192;2022-08-05T01:06:39;94881.31;;;17.92;100.00
36828;BME280;22766;48.042;11.192;2022-08-05T01:09:09;94868.25;;;17.92;100.00
36828;BME280;22766;48.042;11.192;2022-08-05T01:11:36;94872.47;;;17.99;100.00
36828;BME280;22766;48.042;11.192;2022-08-05T01:14:15;94871.25;;;17.95;100.00
36828;BME280;22766;48.042;11.192;2022-08-05T01:16:59;94873.69;;;17.97;100.00
36828;BME280;22766;48.042;11.192;2022-08-05T01:30:28;94867.88;;;17.95;100.00
36828;BME280;22766;48.042;11.192;2022-08-05T01:33:03;94870.84;;;17.79;100.00
36828;BME280;22766;48.042;11.192;2022-08-05T01:35:36;94867.25;;;17.80;100.00
36828;BME280;22766;48.042;11.192;2022-08-05T01:38:19;94876.25;;;17.64;100.00
36828;BME280;22766;48.042;11.192;2022-08-05T01:40:56;94873.41;;;17.59;100.00
36828;BME280;22766;48.042;11.192;2022-08-05T01:43:26;94872.81;;;17.50;100.00
36828;BME280;22766;48.042;11.192;2022-08-05T01:45:54;94873.81;;;17.49;100.00
36828;BME280;22766;48.042;11.192;2022-08-05T01:48:24;94875.81;;;17.54;100.00
36828;BME280;22766;48.042;11.192;2022-08-05T01:50:54;94878.47;;;17.60;100.00
36828;BME280;22766;48.042;11.192;2022-08-05T01:53:22;94872.63;;;17.65;100.00
36828;BME280;22766;48.042;11.192;2022-08-05T01:56:12;94876.47;;;17.76;100.00
36828;BME280;22766;48.042;11.192;2022-08-05T01:59:01;94874.88;;;17.81;100.00
36828;BME280;22766;48.042;11.192;2022-08-05T02:01:31;94873.88;;;17.89;100.00
36828;BME280;22766;48.042;11.192;2022-08-05T02:04:08;94876.09;;;17.85;100.00
36828;BME280;22766;48.042;11.192;2022-08-05T02:06:36;94869.47;;;17.89;100.00
36828;BME280;22766;48.042;11.192;2022-08-05T02:09:05;94874.88;;;17.81;100.00
36828;BME280;22766;48.042;11.192;2022-08-05T02:12:05;94869.44;;;17.76;100.00
36828;BME280;22766;48.042;11.192;2022-08-05T02:15:16;94874.88;;;17.68;100.00
36828;BME280;22766;48.042;11.192;2022-08-05T02:17:56;94873.03;;;17.62;100.00
36828;BME280;22766;48.042;11.192;2022-08-05T02:21:06;94875.44;;;17.63;100.00
36828;BME280;22766;48.042;11.192;2022-08-05T02:23:43;94882.09;;;17.66;100.00
36828;BME280;22766;48.042;11.192;2022-08-05T02:26:15;94882.28;;;17.71;100.00
36828;BME280;22766;48.042;11.192;2022-08-05T02:28:47;94876.06;;;17.79;100.00
36828;BME280;22766;48.042;11.192;2022-08-05T02:31:22;94881.28;;;17.79;100.00
36828;BME280;22766;48.042;11.192;2022-08-05T02:33:57;94882.91;;;17.86;100.00
36828;BME280;22766;48.042;11.192;2022-08-05T02:36:27;94879.50;;;17.86;100.00
36828;BME280;22766;48.042;11.192;2022-08-05T02:38:59;94876.28;;;17.90;100.00
36828;BME280;22766;48.042;11.192;2022-08-05T02:41:27;94881.13;;;17.87;100.00
36828;BME280;22766;48.042;11.192;2022-08-05T02:44:15;94878.72;;;17.85;100.00
36828;BME280;22766;48.042;11.192;2022-08-05T02:46:44;94880.50;;;17.85;100.00
36828;BME280;22766;48.042;11.192;2022-08-05T02:49:28;94874.09;;;17.87;100.00
36828;BME280;22766;48.042;11.192;2022-08-05T02:52:05;94879.91;;;17.83;100.00
36828;BME280;22766;48.042;11.192;2022-08-05T02:54:33;94873.25;;;17.80;100.00
36828;BME280;22766;48.042;11.192;2022-08-05T02:57:07;94879.09;;;17.82;100.00
36828;BME280;22766;48.042;11.192;2022-08-05T02:59:55;94876.31;;;17.97;100.00
36828;BME280;22766;48.042;11.192;2022-08-05T03:02:28;94872.47;;;18.12;100.00
36828;BME280;22766;48.042;11.192;2022-08-05T03:04:57;94871.88;;;18.17;100.00
36828;BME280;22766;48.042;11.192;2022-08-05T03:07:26;94875.09;;;18.19;100.00
36828;BME280;22766;48.042;11.192;2022-08-05T03:10:14;94873.50;;;18.18;100.00
36828;BME280;22766;48.042;11.192;2022-08-05T03:12:51;94875.72;;;18.08;100.00
36828;BME280;22766;48.042;11.192;2022-08-05T03:15:20;94872.09;;;18.02;100.00
36828;BME280;22766;48.042;11.192;2022-08-05T03:17:51;94873.69;;;17.90;100.00
36828;BME280;22766;48.042;11.192;2022-08-05T03:20:21;94871.47;;;17.81;100.00
36828;BME280;22766;48.042;11.192;2022-08-05T03:22:50;94874.06;;;17.67;100.00
36828;BME280;22766;48.042;11.192;2022-08-05T03:25:18;94865.00;;;17.63;100.00
36828;BME280;22766;48.042;11.192;2022-08-05T03:28:07;94865.00;;;17.63;100.00
36828;BME280;22766;48.042;11.192;2022-08-05T03:30:34;94865.63;;;17.72;100.00
36828;BME280;22766;48.042;11.192;2022-08-05T03:33:03;94859.81;;;17.70;100.00
36828;BME280;22766;48.042;11.192;2022-08-05T03:35:31;94855.97;;;17.66;100.00
36828;BME280;22766;48.042;11.192;2022-08-05T03:38:00;94851.53;;;17.60;100.00
36828;BME280;22766;48.042;11.192;2022-08-05T03:40:27;94857.56;;;17.54;100.00
36828;BME280;22766;48.042;11.192;2022-08-05T03:42:58;94860.50;;;17.38;100.00
36828;BME280;22766;48.042;11.192;2022-08-05T03:45:41;94860.88;;;17.28;100.00
36828;BME280;22766;48.042;11.192;2022-08-05T03:48:25;94868.78;;;17.01;100.00
36828;BME280;22766;48.042;11.192;2022-08-05T03:51:00;94874.16;;;16.86;100.00
36828;BME280;22766;48.042;11.192;2022-08-05T03:53:56;94879.31;;;16.79;100.00
36828;BME280;22766;48.042;11.192;2022-08-05T03:56:45;94890.72;;;16.72;100.00
36828;BME280;22766;48.042;11.192;2022-08-05T03:59:16;94909.34;;;16.69;100.00
36828;BME280;22766;48.042;11.192;2022-08-05T04:01:49;94911.41;;;16.80;100.00
36828;BME280;22766;48.042;11.192;2022-08-05T04:04:19;94917.53;;;17.00;100.00
36828;BME280;22766;48.042;11.192;2022-08-05T04:06:47;94928.69;;;17.22;100.00
36828;BME280;22766;48.042;11.192;2022-08-05T04:09:17;94931.75;;;17.38;100.00
36828;BME280;22766;48.042;11.192;2022-08-05T04:11:52;94922.44;;;17.57;100.00
36828;BME280;22766;48.042;11.192;2022-08-05T04:14:23;94923.47;;;17.69;100.00
36828;BME280;22766;48.042;11.192;2022-08-05T04:16:57;94926.09;;;17.82;100.00
36828;BME280;22766;48.042;11.192;2022-08-05T04:19:26;94917.66;;;17.93;100.00
36828;BME280;22766;48.042;11.192;2022-08-05T04:21:53;94914.09;;;18.01;100.00
36828;BME280;22766;48.042;11.192;2022-08-05T04:24:41;94915.28;;;18.05;100.00
36828;BME280;22766;48.042;11.192;2022-08-05T04:27:11;94921.72;;;18.09;100.00
36828;BME280;22766;48.042;11.192;2022-08-05T04:29:38;94917.50;;;18.08;100.00
36828;BME280;22766;48.042;11.192;2022-08-05T04:32:06;94922.53;;;18.09;100.00
36828;BME280;22766;48.042;11.192;2022-08-05T04:34:33;94924.56;;;18.14;100.00
36828;BME280;22766;48.042;11.192;2022-08-05T04:37:08;94920.72;;;18.16;100.00
36828;BME280;22766;48.042;11.192;2022-08-05T04:39:36;94925.34;;;18.21;100.00
36828;BME280;22766;48.042;11.192;2022-08-05T04:42:04;94919.94;;;18.29;100.00
36828;BME280;22766;48.042;11.192;2022-08-05T04:44:31;94919.13;;;18.28;100.00
36828;BME280;22766;48.042;11.192;2022-08-05T04:46:58;94923.56;;;18.34;100.00
36828;BME280;22766;48.042;11.192;2022-08-05T04:49:36;94928.16;;;18.39;100.00
36828;BME280;22766;48.042;11.192;2022-08-05T04:52:22;94929.41;;;18.49;100.00
36828;BME280;22766;48.042;11.192;2022-08-05T04:54:53;94923.34;;;18.62;100.00
36828;BME280;22766;48.042;11.192;2022-08-05T04:57:23;94931.00;;;18.70;100.00
36828;BME280;22766;48.042;11.192;2022-08-05T04:59:55;94923.56;;;18.80;100.00
36828;BME280;22766;48.042;11.192;2022-08-05T05:02:24;94929.75;;;18.92;100.00
36828;BME280;22766;48.042;11.192;2022-08-05T05:05:04;94931.94;;;19.08;100.00
36828;BME280;22766;48.042;11.192;2022-08-05T05:07:52;94929.88;;;19.30;100.00
36828;BME280;22766;48.042;11.192;2022-08-05T05:10:22;94928.97;;;19.55;100.00
36828;BME280;22766;48.042;11.192;2022-08-05T05:12:49;94925.81;;;19.78;100.00
36828;BME280;22766;48.042;11.192;2022-08-05T05:15:16;94928.28;;;20.04;100.00
36828;BME280;22766;48.042;11.192;2022-08-05T05:18:03;94924.84;;;20.41;100.00
36828;BME280;22766;48.042;11.192;2022-08-05T05:20:31;94935.53;;;20.65;100.00
36828;BME280;22766;48.042;11.192;2022-08-05T05:22:59;94928.81;;;20.93;100.00
36828;BME280;22766;48.042;11.192;2022-08-05T05:25:33;94937.81;;;21.22;100.00
36828;BME280;22766;48.042;11.192;2022-08-05T05:28:07;94935.56;;;21.44;100.00
36828;BME280;22766;48.042;11.192;2022-08-05T05:30:35;94937.50;;;21.66;100.00
36828;BME280;22766;48.042;11.192;2022-08-05T05:33:03;94944.38;;;21.85;100.00
36828;BME280;22766;48.042;11.192;2022-08-05T05:35:45;94935.13;;;21.94;100.00
36828;BME280;22766;48.042;11.192;2022-08-05T05:38:14;94948.22;;;21.83;100.00
36828;BME280;22766;48.042;11.192;2022-08-05T05:40:54;94946.25;;;21.78;100.00
36828;BME280;22766;48.042;11.192;2022-08-05T05:43:21;94950.91;;;21.94;100.00
36828;BME280;22766;48.042;11.192;2022-08-05T05:46:08;94950.84;;;22.01;100.00
36828;BME280;22766;48.042;11.192;2022-08-05T05:48:45;94949.94;;;22.07;100.00
36828;BME280;22766;48.042;11.192;2022-08-05T05:51:18;94954.75;;;22.10;100.00
36828;BME280;22766;48.042;11.192;2022-08-05T05:53:45;94958.34;;;22.27;100.00
36828;BME280;22766;48.042;11.192;2022-08-05T05:56:28;94942.34;;;22.70;100.00
36828;BME280;22766;48.042;11.192;2022-08-05T05:59:01;94947.59;;;23.16;98.10
36828;BME280;22766;48.042;11.192;2022-08-05T06:01:33;94952.59;;;23.52;94.94
36828;BME280;22766;48.042;11.192;2022-08-05T06:04:11;94945.28;;;23.82;92.33
36828;BME280;22766;48.042;11.192;2022-08-05T06:06:42;94954.75;;;24.06;88.25
36828;BME280;22766;48.042;11.192;2022-08-05T06:09:15;94960.25;;;24.33;81.22
36828;BME280;22766;48.042;11.192;2022-08-05T06:11:52;94961.41;;;24.54;81.31
36828;BME280;22766;48.042;11.192;2022-08-05T06:14:31;94948.16;;;24.82;78.45
36828;BME280;22766;48.042;11.192;2022-08-05T06:17:00;94945.09;;;25.07;77.08
36828;BME280;22766;48.042;11.192;2022-08-05T06:19:47;94940.88;;;25.27;73.93
36828;BME280;22766;48.042;11.192;2022-08-05T06:22:31;94946.88;;;25.39;71.47
36828;BME280;22766;48.042;11.192;2022-08-05T06:25:01;94958.38;;;25.50;70.77
36828;BME280;22766;48.042;11.192;2022-08-05T06:27:48;94957.09;;;25.52;73.46
36828;BME280;22766;48.042;11.192;2022-08-05T06:30:35;94964.97;;;25.47;71.13
36828;BME280;22766;48.042;11.192;2022-08-05T06:33:02;94957.91;;;25.53;71.90
36828;BME280;22766;48.042;11.192;2022-08-05T06:35:29;94966.88;;;25.52;67.59
36828;BME280;22766;48.042;11.192;2022-08-05T06:38:16;94969.03;;;25.38;69.93
36828;BME280;22766;48.042;11.192;2022-08-05T06:41:01;94968.50;;;25.20;77.89
36828;BME280;22766;48.042;11.192;2022-08-05T06:43:28;94972.78;;;25.21;72.82
36828;BME280;22766;48.042;11.192;2022-08-05T06:46:16;94974.34;;;25.22;72.60
36828;BME280;22766;48.042;11.192;2022-08-05T06:48:42;94973.22;;;25.34;70.23
36828;BME280;22766;48.042;11.192;2022-08-05T06:51:22;94982.03;;;25.23;71.89
36828;BME280;22766;48.042;11.192;2022-08-05T06:53:59;94987.41;;;25.28;69.46
36828;BME280;22766;48.042;11.192;2022-08-05T06:56:28;94979.81;;;25.15;71.77
36828;BME280;22766;48.042;11.192;2022-08-05T06:58:59;94977.63;;;25.29;68.84
36828;BME280;22766;48.042;11.192;2022-08-05T07:01:26;94997.28;;;25.16;71.49
36828;BME280;22766;48.042;11.192;2022-08-05T07:04:00;94997.53;;;25.15;72.52
36828;BME280;22766;48.042;11.192;2022-08-05T07:06:28;94996.94;;;25.29;69.64
36828;BME280;22766;48.042;11.192;2022-08-05T07:08:55;95000.13;;;25.31;70.65
36828;BME280;22766;48.042;11.192;2022-08-05T07:11:24;95002.91;;;25.58;67.04
36828;BME280;22766;48.042;11.192;2022-08-05T07:13:53;95002.97;;;25.63;68.15
36828;BME280;22766;48.042;11.192;2022-08-05T07:16:46;95008.91;;;25.70;71.42
36828;BME280;22766;48.042;11.192;2022-08-05T07:19:36;95016.94;;;25.58;72.57
36828;BME280;22766;48.042;11.192;2022-08-05T07:22:23;95026.22;;;25.61;73.16
36828;BME280;22766;48.042;11.192;2022-08-05T07:25:00;95033.47;;;25.49;73.19
36828;BME280;22766;48.042;11.192;2022-08-05T07:27:51;95041.16;;;25.34;74.86
36828;BME280;22766;48.042;11.192;2022-08-05T07:30:32;95046.66;;;25.32;72.37
36828;BME280;22766;48.042;11.192;2022-08-05T07:33:06;95056.44;;;25.32;71.02
36828;BME280;22766;48.042;11.192;2022-08-05T07:35:39;95055.47;;;25.21;73.38
36828;BME280;22766;48.042;11.192;2022-08-05T07:38:26;95065.81;;;25.06;74.37
36828;BME280;22766;48.042;11.192;2022-08-05T07:41:09;95063.81;;;25.13;71.12
36828;BME280;22766;48.042;11.192;2022-08-05T07:43:59;95070.00;;;25.19;70.33
36828;BME280;22766;48.042;11.192;2022-08-05T07:46:29;95073.25;;;25.26;70.05
36828;BME280;22766;48.042;11.192;2022-08-05T07:48:57;95074.91;;;25.43;68.52
36828;BME280;22766;48.042;11.192;2022-08-05T07:51:31;95087.31;;;25.43;67.76
36828;BME280;22766;48.042;11.192;2022-08-05T07:54:06;95093.72;;;25.47;69.59
36828;BME280;22766;48.042;11.192;2022-08-05T07:56:36;95097.69;;;25.49;70.82
36828;BME280;22766;48.042;11.192;2022-08-05T07:59:23;95109.19;;;25.55;71.48
36828;BME280;22766;48.042;11.192;2022-08-05T08:02:07;95118.50;;;25.79;68.04
36828;BME280;22766;48.042;11.192;2022-08-05T08:04:46;95112.34;;;25.57;65.27
36828;BME280;22766;48.042;11.192;2022-08-05T08:07:14;95117.00;;;25.17;68.08
36828;BME280;22766;48.042;11.192;2022-08-05T08:09:41;95126.13;;;24.81;71.74
36828;BME280;22766;48.042;11.192;2022-08-05T08:12:08;95121.28;;;25.23;71.71
36828;BME280;22766;48.042;11.192;2022-08-05T08:14:55;95131.34;;;25.70;65.93
36828;BME280;22766;48.042;11.192;2022-08-05T08:17:27;95124.75;;;26.06;68.47
36828;BME280;22766;48.042;11.192;2022-08-05T08:19:55;95120.50;;;26.27;64.30
36828;BME280;22766;48.042;11.192;2022-08-05T08:22:42;95123.22;;;26.53;66.92
36828;BME280;22766;48.042;11.192;2022-08-05T08:25:09;95127.59;;;26.64;61.56
36828;BME280;22766;48.042;11.192;2022-08-05T08:27:43;95123.66;;;26.67;61.94
36828;BME280;22766;48.042;11.192;2022-08-05T08:30:16;95121.38;;;27.02;61.21
36828;BME280;22766;48.042;11.192;2022-08-05T08:32:59;95133.06;;;27.06;59.33
36828;BME280;22766;48.042;11.192;2022-08-05T08:35:34;95138.13;;;27.34;63.84
36828;BME280;22766;48.042;11.192;2022-08-05T08:38:07;95143.66;;;27.59;59.76
36828;BME280;22766;48.042;11.192;2022-08-05T08:40:42;95144.78;;;27.73;56.46
36828;BME280;22766;48.042;11.192;2022-08-05T08:43:17;95143.09;;;27.57;56.93
36828;BME280;22766;48.042;11.192;2022-08-05T08:46:05;95147.75;;;27.45;56.16
36828;BME280;22766;48.042;11.192;2022-08-05T08:48:36;95158.78;;;27.64;56.74
36828;BME280;22766;48.042;11.192;2022-08-05T08:51:26;95153.97;;;27.56;56.81
36828;BME280;22766;48.042;11.192;2022-08-05T08:54:16;95160.00;;;27.83;56.24
36828;BME280;22766;48.042;11.192;2022-08-05T08:56:43;95158.78;;;27.96;55.87
36828;BME280;22766;48.042;11.192;2022-08-05T08:59:17;95164.28;;;28.26;56.46
36828;BME280;22766;48.042;11.192;2022-08-05T09:01:46;95166.00;;;28.52;55.56
36828;BME280;22766;48.042;11.192;2022-08-05T09:04:26;95162.94;;;28.70;54.88
36828;BME280;22766;48.042;11.192;2022-08-05T09:06:56;95166.44;;;28.91;50.09
36828;BME280;22766;48.042;11.192;2022-08-05T09:09:24;95160.63;;;28.99;51.31
36828;BME280;22766;48.042;11.192;2022-08-05T09:11:57;95168.66;;;29.24;52.42
36828;BME280;22766;48.042;11.192;2022-08-05T09:14:40;95173.50;;;29.42;49.63
36828;BME280;22766;48.042;11.192;2022-08-05T09:17:27;95172.47;;;29.83;49.52
36828;BME280;22766;48.042;11.192;2022-08-05T09:20:10;95180.69;;;30.02;48.92
36828;BME280;22766;48.042;11.192;2022-08-05T09:23:03;95174.81;;;30.35;46.40
36828;BME280;22766;48.042;11.192;2022-08-05T09:25:34;95177.47;;;30.25;45.93
36828;BME280;22766;48.042;11.192;2022-08-05T09:28:22;95177.22;;;29.51;46.96
36828;BME280;22766;48.042;11.192;2022-08-05T09:31:05;95182.78;;;29.19;46.09
36828;BME280;22766;48.042;11.192;2022-08-05T09:33:56;95190.25;;;29.68;48.05
36828;BME280;22766;48.042;11.192;2022-08-05T09:36:43;95189.75;;;30.11;49.41
36828;BME280;22766;48.042;11.192;2022-08-05T09:39:23;95190.78;;;30.40;47.36
36828;BME280;22766;48.042;11.192;2022-08-05T09:42:10;95196.66;;;30.37;46.06
36828;BME280;22766;48.042;11.192;2022-08-05T09:44:51;95192.91;;;30.38;47.47
36828;BME280;22766;48.042;11.192;2022-08-05T09:47:24;95195.31;;;30.34;46.23
36828;BME280;22766;48.042;11.192;2022-08-05T09:49:53;95197.72;;;29.96;48.40
36828;BME280;22766;48.042;11.192;2022-08-05T10:02:36;95193.38;;;30.60;44.88
36828;BME280;22766;48.042;11.192;2022-08-05T10:05:30;95200.72;;;30.93;44.70
36828;BME280;22766;48.042;11.192;2022-08-05T10:08:00;95201.53;;;30.94;44.28
36828;BME280;22766;48.042;11.192;2022-08-05T10:10:48;95195.66;;;31.02;44.74
36828;BME280;22766;48.042;11.192;2022-08-05T10:13:37;95212.13;;;31.09;44.48
36828;BME280;22766;48.042;11.192;2022-08-05T10:16:34;95202.66;;;31.32;43.49
36828;BME280;22766;48.042;11.192;2022-08-05T10:19:09;95204.19;;;31.91;41.72
36828;BME280;22766;48.042;11.192;2022-08-05T10:21:37;95201.47;;;31.96;41.04
36828;BME280;22766;48.042;11.192;2022-08-05T10:24:09;95208.84;;;31.71;42.12
36828;BME280;22766;48.042;11.192;2022-08-05T10:26:44;95196.69;;;31.50;41.03
36828;BME280;22766;48.042;11.192;2022-08-05T10:29:19;95191.94;;;31.80;41.30
36828;BME280;22766;48.042;11.192;2022-08-05T10:32:07;95196.56;;;32.08;40.26
36828;BME280;22766;48.042;11.192;2022-08-05T10:34:54;95197.47;;;31.89;40.42
36828;BME280;22766;48.042;11.192;2022-08-05T10:37:28;95184.69;;;31.91;39.83
36828;BME280;22766;48.042;11.192;2022-08-05T10:45:38;95185.75;;;32.47;37.62
36828;BME280;22766;48.042;11.192;2022-08-05T10:48:27;95183.81;;;31.62;37.94
36828;BME280;22766;48.042;11.192;2022-08-05T10:51:13;95188.69;;;31.01;39.26
36828;BME280;22766;48.042;11.192;2022-08-05T10:54:00;95175.56;;;30.51;39.72
36828;BME280;22766;48.042;11.192;2022-08-05T10:56:51;95177.50;;;29.95;42.61
36828;BME280;22766;48.042;11.192;2022-08-05T10:59:27;95172.44;;;29.73;42.49
36828;BME280;22766;48.042;11.192;2022-08-05T11:02:14;95177.22;;;29.31;43.14
36828;BME280;22766;48.042;11.192;2022-08-05T11:05:04;95176.94;;;29.32;44.70
36828;BME280;22766;48.042;11.192;2022-08-05T11:07:32;95170.81;;;29.37;44.74
36828;BME280;22766;48.042;11.192;2022-08-05T11:10:21;95175.34;;;29.46;45.40
36828;BME280;22766;48.042;11.192;2022-08-05T11:12:58;95173.25;;;29.84;45.62
36828;BME280;22766;48.042;11.192;2022-08-05T11:15:34;95169.22;;;30.16;42.87
36828;BME280;22766;48.042;11.192;2022-08-05T11:18:28;95172.63;;;30.47;43.04
36828;BME280;22766;48.042;11.192;2022-08-05T11:20:59;95177.44;;;30.50;43.20
36828;BME280;22766;48.042;11.192;2022-08-05T11:23:52;95175.22;;;31.26;42.83
36828;BME280;22766;48.042;11.192;2022-08-05T11:26:39;95173.47;;;31.84;39.93
36828;BME280;22766;48.042;11.192;2022-08-05T11:29:38;95176.09;;;31.94;38.02
36828;BME280;22766;48.042;11.192;2022-08-05T11:34:51;95166.91;;;32.05;37.34
36828;BME280;22766;48.042;11.192;2022-08-05T11:40:57;95159.81;;;30.54;38.17
36828;BME280;22766;48.042;11.192;2022-08-05T11:44:25;95164.16;;;31.04;36.99
36828;BME280;22766;48.042;11.192;2022-08-05T11:47:04;95155.16;;;30.80;38.44
36828;BME280;22766;48.042;11.192;2022-08-05T11:49:40;95153.50;;;30.10;40.07
36828;BME280;22766;48.042;11.192;2022-08-05T11:52:08;95157.91;;;30.65;40.31
36828;BME280;22766;48.042;11.192;2022-08-05T11:54:38;95155.91;;;31.44;38.51
36828;BME280;22766;48.042;11.192;2022-08-05T11:57:08;95158.88;;;31.33;36.63
36828;BME280;22766;48.042;11.192;2022-08-05T11:59:52;95155.25;;;31.18;37.47
36828;BME280;22766;48.042;11.192;2022-08-05T12:02:24;95149.34;;;30.83;39.20
36828;BME280;22766;48.042;11.192;2022-08-05T12:05:02;95146.16;;;30.71;37.98
36828;BME280;22766;48.042;11.192;2022-08-05T12:07:34;95146.59;;;31.42;37.42
36828;BME280;22766;48.042;11.192;2022-08-05T12:10:21;95136.41;;;32.11;34.45
36828;BME280;22766;48.042;11.192;2022-08-05T12:13:10;95139.50;;;31.94;34.15
36828;BME280;22766;48.042;11.192;2022-08-05T12:15:43;95145.13;;;32.45;34.32
36828;BME280;22766;48.042;11.192;2022-08-05T12:18:18;95132.69;;;33.39;32.85
36828;BME280;22766;48.042;11.192;2022-08-05T12:20:49;95133.97;;;33.92;30.60
36828;BME280;22766;48.042;11.192;2022-08-05T12:23:16;95130.88;;;33.34;31.55
36828;BME280;22766;48.042;11.192;2022-08-05T12:25:53;95134.88;;;32.99;32.29
36828;BME280;22766;48.042;11.192;2022-08-05T12:28:48;95136.81;;;32.70;34.17
36828;BME280;22766;48.042;11.192;2022-08-05T12:31:15;95130.13;;;32.91;33.51
36828;BME280;22766;48.042;11.192;2022-08-05T12:34:05;95130.31;;;32.58;34.51
36828;BME280;22766;48.042;11.192;2022-08-05T12:36:34;95119.06;;;31.46;35.77
36828;BME280;22766;48.042;11.192;2022-08-05T12:39:03;95119.63;;;31.43;36.84
36828;BME280;22766;48.042;11.192;2022-08-05T12:41:34;95124.97;;;32.58;33.85
36828;BME280;22766;48.042;11.192;2022-08-05T12:44:11;95116.88;;;32.81;34.17
36828;BME280;22766;48.042;11.192;2022-08-05T12:46:52;95115.91;;;33.52;33.27
36828;BME280;22766;48.042;11.192;2022-08-05T12:49:19;95119.16;;;34.13;32.41
36828;BME280;22766;48.042;11.192;2022-08-05T12:51:58;95111.34;;;34.30;32.57
36828;BME280;22766;48.042;11.192;2022-08-05T12:54:46;95105.59;;;34.23;31.00
36828;BME280;22766;48.042;11.192;2022-08-05T12:57:15;95109.94;;;34.60;31.26
36828;BME280;22766;48.042;11.192;2022-08-05T13:02:30;95095.72;;;33.03;32.08
36828;BME280;22766;48.042;11.192;2022-08-05T13:04:57;95100.19;;;32.71;33.79
36828;BME280;22766;48.042;11.192;2022-08-05T13:07:25;95095.34;;;33.29;32.95
36828;BME280;22766;48.042;11.192;2022-08-05T13:10:13;95089.38;;;34.28;31.75
36828;BME280;22766;48.042;11.192;2022-08-05T13:12:45;95092.50;;;34.49;31.25
36828;BME280;22766;48.042;11.192;2022-08-05T13:15:28;95079.66;;;34.32;31.81
36828;BME280;22766;48.042;11.192;2022-08-05T13:18:14;95090.75;;;34.12;31.58
36828;BME280;22766;48.042;11.192;2022-08-05T13:20:46;95089.97;;;34.25;31.67
36828;BME280;22766;48.042;11.192;2022-08-05T13:23:14;95094.97;;;33.86;31.52
36828;BME280;22766;48.042;11.192;2022-08-05T13:25:43;95096.31;;;34.29;31.10
36828;BME280;22766;48.042;11.192;2022-08-05T13:28:24;95096.06;;;35.07;30.52
36828;BME280;22766;48.042;11.192;2022-08-05T13:30:51;95095.84;;;35.75;28.44
36828;BME280;22766;48.042;11.192;2022-08-05T13:33:20;95097.63;;;36.41;27.97
36828;BME280;22766;48.042;11.192;2022-08-05T13:36:07;95084.25;;;36.27;27.82
36828;BME280;22766;48.042;11.192;2022-08-05T13:38:35;95079.91;;;36.48;27.25
36828;BME280;22766;48.042;11.192;2022-08-05T13:41:11;95079.97;;;35.65;28.18
36828;BME280;22766;48.042;11.192;2022-08-05T13:43:37;95076.16;;;35.88;27.41
36828;BME280;22766;48.042;11.192;2022-08-05T13:46:20;95072.00;;;36.52;27.83
36828;BME280;22766;48.042;11.192;2022-08-05T13:49:07;95078.38;;;36.25;27.48
36828;BME280;22766;48.042;11.192;2022-08-05T13:51:36;95071.28;;;36.29;27.19
36828;BME280;22766;48.042;11.192;2022-08-05T13:54:10;95074.53;;;36.57;26.88
36828;BME280;22766;48.042;11.192;2022-08-05T13:56:43;95067.09;;;34.96;28.76
36828;BME280;22766;48.042;11.192;2022-08-05T13:59:21;95059.41;;;34.26;29.92
36828;BME280;22766;48.042;11.192;2022-08-05T14:01:53;95062.19;;;33.11;32.32
36828;BME280;22766;48.042;11.192;2022-08-05T14:04:28;95065.31;;;33.82;31.55
36828;BME280;22766;48.042;11.192;2022-08-05T14:07:20;95053.53;;;35.36;30.52
36828;BME280;22766;48.042;11.192;2022-08-05T14:10:09;95053.59;;;36.85;26.63